Time;durP1;ratioP1;P1;durP2;ratioP2;P2;SDS_P1;SDS_P2;PMS_P1;PMS_P2;Temp;Humidity;BMP_temperature;BMP_pressure;BME280_temperature;BME280_humidity;BME280_pressure;Samples;Min_cycle;Max_cycle;Signal;HPM_P1;HPM_P2
2021/10/03 00:00:18;;;;;;;5.60;3.35;;;15.30;83.90;;;;;;5072790;28;20603;-89
2021/10/03 00:02:48;;;;;;;6.80;3.72;;;15.30;84.20;;;;;;5072725;28;20174;-90
2021/10/03 00:05:15;;;;;;;4.25;3.17;;;15.30;84.20;;;;;;5073897;28;20159;-89
2021/10/03 00:07:46;;;;;;;5.80;3.90;;;15.30;84.10;;;;;;5072599;28;20179;-89
2021/10/03 00:10:12;;;;;;;7.03;3.95;;;15.30;84.20;;;;;;5072451;28;20213;-89
2021/10/03 00:12:39;;;;;;;5.80;3.50;;;15.30;84.10;;;;;;5073425;28;20176;-90
2021/10/03 00:15:07;;;;;;;3.72;3.05;;;15.40;84.20;;;;;;5072590;28;20176;-89
2021/10/03 00:17:33;;;;;;;3.88;3.45;;;15.30;84.20;;;;;;5072412;28;20174;-90
2021/10/03 00:20:00;;;;;;;7.25;3.47;;;15.30;84.00;;;;;;5072648;28;20171;-90
2021/10/03 00:22:26;;;;;;;3.88;3.45;;;15.40;84.10;;;;;;5072505;28;20171;-90
2021/10/03 00:24:51;;;;;;;3.75;3.35;;;15.40;83.90;;;;;;5072527;28;20178;-89
2021/10/03 00:27:17;;;;;;;4.35;3.42;;;15.40;83.80;;;;;;5072646;28;20701;-90
2021/10/03 00:29:42;;;;;;;4.18;3.03;;;15.50;83.50;;;;;;5072187;28;20675;-89
2021/10/03 00:32:08;;;;;;;5.18;3.67;;;15.60;83.40;;;;;;5072279;28;20301;-90
2021/10/03 00:34:34;;;;;;;7.70;3.42;;;15.60;83.30;;;;;;5073838;28;20172;-89
2021/10/03 00:36:59;;;;;;;4.57;3.35;;;15.80;82.40;;;;;;5072247;28;20171;-90
2021/10/03 00:39:25;;;;;;;9.85;3.40;;;15.80;82.30;;;;;;5073676;28;20266;-90
2021/10/03 00:41:51;;;;;;;4.50;3.97;;;16.00;81.70;;;;;;5072448;28;20197;-89
2021/10/03 00:44:18;;;;;;;4.13;3.67;;;16.20;81.30;;;;;;5072812;28;20183;-89
2021/10/03 00:46:44;;;;;;;4.68;3.65;;;16.20;81.10;;;;;;5076453;28;20293;-90
2021/10/03 00:49:09;;;;;;;6.20;3.72;;;16.30;80.00;;;;;;5076218;28;20262;-89
2021/10/03 00:51:35;;;;;;;4.43;3.65;;;16.50;79.10;;;;;;5076229;28;20209;-90
2021/10/03 00:54:01;;;;;;;3.75;3.38;;;16.60;78.80;;;;;;5076184;28;20708;-89
2021/10/03 00:56:26;;;;;;;6.50;3.58;;;16.70;77.90;;;;;;5076463;28;20177;-89
2021/10/03 00:58:52;;;;;;;8.75;3.28;;;16.80;77.30;;;;;;5076067;28;20293;-89
2021/10/03 01:01:20;;;;;;;4.95;3.05;;;17.00;77.00;;;;;;5077371;28;20195;-89
2021/10/03 01:03:46;;;;;;;2.95;2.70;;;17.20;76.30;;;;;;5077148;28;20171;-89
2021/10/03 01:06:12;;;;;;;2.97;2.67;;;17.30;75.50;;;;;;5077183;28;20176;-89
2021/10/03 01:08:38;;;;;;;4.10;2.88;;;17.20;76.40;;;;;;5075873;28;20199;-89
2021/10/03 01:11:04;;;;;;;3.13;2.70;;;17.20;76.10;;;;;;5075802;28;20294;-89
2021/10/03 01:13:31;;;;;;;4.03;3.17;;;17.30;76.00;;;;;;5075746;28;20179;-89
2021/10/03 01:15:56;;;;;;;5.28;3.22;;;17.20;76.30;;;;;;5075959;28;20172;-89
2021/10/03 01:18:22;;;;;;;5.65;3.20;;;17.20;76.60;;;;;;5075945;28;20240;-89
2021/10/03 01:20:49;;;;;;;5.10;2.97;;;17.20;76.80;;;;;;5075656;28;20186;-89
2021/10/03 01:23:16;;;;;;;4.43;3.42;;;17.20;76.60;;;;;;5075496;28;20186;-89
2021/10/03 01:25:46;;;;;;;3.88;3.50;;;17.20;76.60;;;;;;5075569;28;20181;-89
2021/10/03 01:28:13;;;;;;;7.07;3.47;;;17.20;76.60;;;;;;5076829;28;20198;-89
2021/10/03 01:30:42;;;;;;;5.47;3.22;;;17.30;76.00;;;;;;5075350;28;20221;-89
2021/10/03 01:33:07;;;;;;;6.82;4.05;;;17.40;75.50;;;;;;5076718;28;20264;-89
2021/10/03 01:35:33;;;;;;;7.93;3.38;;;17.30;76.80;;;;;;5075383;28;20266;-89
2021/10/03 01:37:59;;;;;;;4.47;3.25;;;17.20;77.30;;;;;;5075218;28;20192;-89
2021/10/03 01:40:25;;;;;;;4.07;2.80;;;17.20;77.00;;;;;;5075259;28;20545;-89
2021/10/03 01:42:52;;;;;;;5.53;3.45;;;17.30;76.30;;;;;;5075214;28;20608;-89
2021/10/03 01:45:20;;;;;;;6.20;4.07;;;17.20;77.00;;;;;;5075188;28;20175;-89
2021/10/03 01:48:13;;;;;;;5.35;4.00;;;17.30;76.20;;;;;;5075063;28;20175;-89
2021/10/03 01:50:59;;;;;;;4.82;3.55;;;17.50;76.20;;;;;;5075142;28;20566;-89
2021/10/03 01:53:34;;;;;;;4.38;3.60;;;17.50;75.70;;;;;;5075071;28;20167;-89
2021/10/03 01:56:02;;;;;;;9.02;2.90;;;17.50;76.40;;;;;;5074544;28;20284;-89
2021/10/03 01:58:30;;;;;;;6.15;3.60;;;17.50;76.10;;;;;;5075986;28;20253;-89
2021/10/03 02:01:01;;;;;;;6.10;4.40;;;17.40;76.60;;;;;;5075013;28;20180;-89
2021/10/03 02:03:26;;;;;;;6.00;3.28;;;17.60;76.10;;;;;;5075095;28;20612;-89
2021/10/03 02:05:52;;;;;;;5.93;3.97;;;17.50;76.50;;;;;;5073501;28;20184;-89
2021/10/03 02:08:18;;;;;;;3.92;3.08;;;17.60;76.40;;;;;;5073379;28;20203;-89
2021/10/03 02:10:48;;;;;;;6.75;4.10;;;17.50;76.20;;;;;;5073364;28;20203;-89
2021/10/03 02:13:14;;;;;;;4.22;3.40;;;17.60;76.20;;;;;;5073370;28;20176;-89
2021/10/03 02:15:42;;;;;;;6.35;3.67;;;17.70;76.00;;;;;;5073377;28;20176;-89
2021/10/03 02:18:11;;;;;;;5.57;3.70;;;17.70;76.00;;;;;;5073235;28;20268;-89
2021/10/03 02:20:38;;;;;;;6.43;4.03;;;17.60;76.30;;;;;;5074582;28;20171;-89
2021/10/03 02:23:07;;;;;;;8.27;3.40;;;17.80;75.80;;;;;;5073485;28;20176;-89
2021/10/03 02:25:33;;;;;;;3.78;3.00;;;17.70;76.10;;;;;;5073162;28;20179;-89
2021/10/03 02:27:58;;;;;;;7.45;3.60;;;17.70;76.20;;;;;;5073133;28;20192;-89
2021/10/03 02:30:24;;;;;;;4.55;3.10;;;17.80;75.80;;;;;;5073092;28;20225;-89
2021/10/03 02:32:50;;;;;;;5.35;3.80;;;17.80;75.60;;;;;;5074804;28;20187;-89
2021/10/03 02:35:16;;;;;;;8.20;3.65;;;17.80;75.70;;;;;;5073027;28;20184;-89
2021/10/03 02:37:43;;;;;;;8.23;3.55;;;17.70;76.20;;;;;;5072855;28;20587;-89
2021/10/03 02:40:13;;;;;;;5.40;3.78;;;17.80;75.90;;;;;;5074199;28;20709;-89
2021/10/03 02:42:39;;;;;;;4.85;3.60;;;17.70;76.40;;;;;;5074207;28;20183;-89
2021/10/03 02:45:07;;;;;;;5.32;3.35;;;17.70;76.60;;;;;;5074150;28;20191;-89
2021/10/03 02:47:34;;;;;;;11.60;3.78;;;17.80;76.30;;;;;;5072685;28;20174;-89
2021/10/03 02:49:59;;;;;;;5.43;3.60;;;17.80;76.70;;;;;;5074307;28;20167;-89
2021/10/03 02:52:25;;;;;;;6.30;3.58;;;17.80;76.60;;;;;;5073933;28;20735;-89
2021/10/03 02:54:51;;;;;;;4.53;3.47;;;17.80;76.90;;;;;;5072741;28;20551;-89
2021/10/03 02:57:16;;;;;;;9.20;3.40;;;17.70;77.40;;;;;;5073874;28;20167;-89
2021/10/03 02:59:42;;;;;;;8.50;4.28;;;17.70;77.30;;;;;;5033420;28;1138417;-89
2021/10/03 03:02:08;;;;;;;5.18;3.83;;;17.70;77.20;;;;;;5074341;28;20220;-89
2021/10/03 03:04:33;;;;;;;4.97;3.78;;;17.80;76.80;;;;;;5074719;28;20183;-89
2021/10/03 03:06:59;;;;;;;3.90;3.50;;;17.80;77.00;;;;;;5074788;28;20171;-89
2021/10/03 03:09:25;;;;;;;6.68;3.65;;;17.80;77.00;;;;;;5074005;28;20191;-89
2021/10/03 03:11:51;;;;;;;6.25;3.88;;;17.90;76.80;;;;;;5073382;28;20232;-89
2021/10/03 03:14:17;;;;;;;8.10;3.58;;;17.80;77.00;;;;;;5073551;28;20178;-89
2021/10/03 03:16:44;;;;;;;4.03;3.22;;;17.80;77.20;;;;;;5074731;28;20177;-89
2021/10/03 03:19:10;;;;;;;3.80;3.35;;;17.80;76.70;;;;;;5073287;28;20329;-89
2021/10/03 03:21:36;;;;;;;6.57;3.60;;;17.90;76.60;;;;;;5073344;28;20175;-89
2021/10/03 03:24:03;;;;;;;3.58;3.25;;;17.90;76.80;;;;;;5073259;28;20171;-89
2021/10/03 03:26:28;;;;;;;4.60;3.55;;;17.90;76.80;;;;;;5074502;28;20260;-89
2021/10/03 03:28:54;;;;;;;4.22;3.25;;;17.90;76.80;;;;;;5072896;28;20195;-89
2021/10/03 03:31:20;;;;;;;4.00;3.58;;;17.90;76.90;;;;;;5072937;28;20199;-89
2021/10/03 03:33:45;;;;;;;3.30;2.67;;;17.90;77.10;;;;;;5072906;28;20183;-89
2021/10/03 03:36:11;;;;;;;10.70;3.20;;;18.00;76.30;;;;;;5072921;28;20175;-89
2021/10/03 03:38:37;;;;;;;3.88;3.47;;;18.10;76.20;;;;;;5072854;28;20191;-89
2021/10/03 03:41:05;;;;;;;4.13;3.33;;;18.00;76.60;;;;;;5072818;28;20181;-89
2021/10/03 03:43:30;;;;;;;6.40;3.50;;;18.00;76.70;;;;;;5073916;28;20172;-89
2021/10/03 03:45:56;;;;;;;3.92;3.35;;;18.00;77.00;;;;;;5072724;28;20179;-89
2021/10/03 03:48:22;;;;;;;8.90;3.35;;;18.00;76.90;;;;;;5073809;28;20187;-89
2021/10/03 03:50:48;;;;;;;7.32;3.47;;;17.90;77.50;;;;;;5072579;28;20207;-89
2021/10/03 03:53:13;;;;;;;3.53;3.17;;;17.90;77.40;;;;;;5072488;28;20220;-89
2021/10/03 03:55:39;;;;;;;4.80;3.50;;;17.80;78.10;;;;;;5072492;28;20259;-88
2021/10/03 03:58:05;;;;;;;5.80;3.47;;;17.80;78.10;;;;;;5072327;28;20282;-89
2021/10/03 04:00:30;;;;;;;5.18;3.05;;;17.70;78.20;;;;;;5073690;28;20186;-89
2021/10/03 04:02:56;;;;;;;7.15;3.90;;;17.80;77.80;;;;;;5072481;28;20182;-89
2021/10/03 04:05:22;;;;;;;4.38;3.58;;;17.90;77.90;;;;;;5072369;28;20179;-89
2021/10/03 04:07:47;;;;;;;3.50;3.10;;;17.70;78.60;;;;;;5072301;28;20305;-89
2021/10/03 04:10:13;;;;;;;4.38;3.20;;;17.80;77.90;;;;;;5072265;28;20175;-89
2021/10/03 04:12:39;;;;;;;3.95;3.15;;;17.80;78.00;;;;;;5072354;28;20187;-89
2021/10/03 04:15:06;;;;;;;4.38;3.00;;;17.90;78.00;;;;;;5072379;28;20167;-89
2021/10/03 04:17:32;;;;;;;4.90;3.67;;;17.90;77.90;;;;;;5072286;28;20179;-89
2021/10/03 04:19:57;;;;;;;4.10;3.70;;;17.90;77.80;;;;;;5072207;28;20188;-89
2021/10/03 04:22:23;;;;;;;3.75;3.40;;;18.00;77.70;;;;;;5072187;28;20181;-89
2021/10/03 04:24:49;;;;;;;4.55;3.20;;;17.90;77.90;;;;;;5072210;28;20176;-89
2021/10/03 04:27:15;;;;;;;4.70;3.08;;;17.90;77.70;;;;;;5073388;28;20258;-89
2021/10/03 04:29:42;;;;;;;5.45;3.20;;;18.00;77.50;;;;;;5072035;28;20267;-89
2021/10/03 04:32:08;;;;;;;8.63;3.00;;;18.20;76.60;;;;;;5073239;28;20658;-89
2021/10/03 04:34:34;;;;;;;8.30;3.38;;;18.10;76.90;;;;;;5072068;28;20195;-89
2021/10/03 04:36:59;;;;;;;4.45;3.20;;;18.10;77.00;;;;;;5072130;28;20226;-89
2021/10/03 04:39:26;;;;;;;5.63;2.92;;;18.10;77.10;;;;;;5072277;28;20218;-89
2021/10/03 04:41:53;;;;;;;5.07;3.30;;;18.00;77.20;;;;;;5073295;28;20183;-89
2021/10/03 04:44:18;;;;;;;3.80;3.40;;;18.00;77.40;;;;;;5071946;28;20183;-89
2021/10/03 04:46:44;;;;;;;3.72;3.03;;;18.00;77.50;;;;;;5072789;28;20171;-89
2021/10/03 04:49:10;;;;;;;5.47;3.40;;;18.00;77.20;;;;;;5071916;28;20195;-89
2021/10/03 04:51:36;;;;;;;3.75;2.97;;;18.00;77.40;;;;;;5071784;28;20279;-89
2021/10/03 04:54:01;;;;;;;4.05;3.22;;;18.00;77.30;;;;;;5073104;28;20195;-89
2021/10/03 04:56:28;;;;;;;4.30;3.60;;;17.90;77.60;;;;;;5071878;28;20171;-89
2021/10/03 04:58:54;;;;;;;5.70;3.42;;;17.90;77.80;;;;;;5071945;28;20556;-89
2021/10/03 05:01:20;;;;;;;4.65;3.83;;;17.90;77.80;;;;;;5071763;28;20176;-89
2021/10/03 05:03:46;;;;;;;4.97;3.65;;;17.80;78.10;;;;;;5071750;28;20224;-89
2021/10/03 05:06:11;;;;;;;8.30;3.78;;;17.70;78.60;;;;;;5073038;28;20172;-89
2021/10/03 05:08:37;;;;;;;4.68;3.35;;;17.70;79.00;;;;;;5071672;28;20198;-89
2021/10/03 05:11:04;;;;;;;4.80;3.42;;;17.70;78.70;;;;;;5071585;28;20225;-89
2021/10/03 05:13:30;;;;;;;5.78;3.40;;;17.70;79.00;;;;;;5071972;28;20228;-89
2021/10/03 05:15:56;;;;;;;6.10;3.55;;;17.70;78.50;;;;;;5072898;28;20655;-89
2021/10/03 05:18:23;;;;;;;5.38;3.40;;;17.70;78.50;;;;;;5071590;28;20207;-89
2021/10/03 05:20:49;;;;;;;3.40;3.10;;;17.70;78.90;;;;;;5071658;28;20175;-89
2021/10/03 05:23:15;;;;;;;5.20;3.70;;;17.70;78.80;;;;;;5071831;28;20183;-89
2021/10/03 05:25:41;;;;;;;3.92;3.53;;;17.70;78.70;;;;;;5073395;28;20180;-89
2021/10/03 05:28:07;;;;;;;7.07;3.72;;;17.70;78.60;;;;;;5071479;28;20817;-89
2021/10/03 05:30:33;;;;;;;8.68;3.78;;;17.80;78.20;;;;;;5071550;28;20207;-89
2021/10/03 05:32:58;;;;;;;8.25;4.10;;;17.70;78.30;;;;;;5076449;28;20174;-89
2021/10/03 05:35:24;;;;;;;5.20;3.58;;;17.70;78.70;;;;;;5075219;28;20277;-89
2021/10/03 05:37:49;;;;;;;5.85;3.53;;;17.70;78.70;;;;;;5076320;28;20682;-89
2021/10/03 05:40:15;;;;;;;5.63;3.95;;;17.70;78.80;;;;;;5076378;28;20246;-89
2021/10/03 05:42:41;;;;;;;5.43;3.78;;;17.70;78.90;;;;;;5076298;28;20174;-89
2021/10/03 05:45:08;;;;;;;10.70;4.00;;;17.70;78.80;;;;;;5076228;28;20168;-89
2021/10/03 05:47:34;;;;;;;4.18;3.78;;;17.60;78.80;;;;;;5074923;28;20628;-89
2021/10/03 05:49:59;;;;;;;5.43;3.95;;;17.70;78.70;;;;;;5074929;28;20177;-89
2021/10/03 05:52:25;;;;;;;5.93;3.55;;;17.60;79.00;;;;;;5075971;28;20567;-89
2021/10/03 05:54:51;;;;;;;8.48;3.95;;;17.70;78.70;;;;;;5076024;28;20175;-89
2021/10/03 05:57:18;;;;;;;5.13;3.95;;;17.60;79.20;;;;;;5074776;28;20643;-89
2021/10/03 05:59:44;;;;;;;4.55;4.00;;;17.50;79.30;;;;;;5074485;28;20561;-89
2021/10/03 06:02:10;;;;;;;4.65;4.20;;;17.50;79.50;;;;;;5074676;28;20604;-89
2021/10/03 06:04:35;;;;;;;6.60;3.60;;;17.50;79.70;;;;;;5074726;28;20171;-89
2021/10/03 06:07:01;;;;;;;3.72;3.25;;;17.50;79.40;;;;;;5074951;28;20606;-89
2021/10/03 06:09:27;;;;;;;3.78;3.38;;;17.70;79.30;;;;;;5074500;28;20675;-89
2021/10/03 06:11:53;;;;;;;5.03;3.53;;;17.50;79.10;;;;;;5074465;28;20233;-89
2021/10/03 06:14:19;;;;;;;5.13;3.72;;;17.60;79.40;;;;;;5074602;28;20182;-89
2021/10/03 06:16:44;;;;;;;3.95;3.55;;;17.60;79.20;;;;;;5074507;28;20180;-89
2021/10/03 06:19:11;;;;;;;5.53;3.25;;;17.60;79.20;;;;;;5074367;28;20188;-89
2021/10/03 06:21:39;;;;;;;9.20;3.38;;;17.70;78.90;;;;;;5074434;28;20654;-89
2021/10/03 06:24:05;;;;;;;4.32;3.40;;;17.70;78.60;;;;;;5074324;28;20180;-89
2021/10/03 06:26:30;;;;;;;3.78;3.22;;;17.70;78.30;;;;;;5074388;28;20550;-89
2021/10/03 06:28:56;;;;;;;5.10;3.83;;;17.80;78.10;;;;;;5074190;28;20206;-89
2021/10/03 06:31:22;;;;;;;4.32;3.33;;;17.80;78.00;;;;;;5075386;28;20191;-89
2021/10/03 06:33:47;;;;;;;3.85;3.45;;;17.80;77.90;;;;;;5074108;28;20185;-89
2021/10/03 06:36:13;;;;;;;4.05;3.30;;;17.90;77.80;;;;;;5075858;28;20164;-89
2021/10/03 06:38:39;;;;;;;4.50;3.70;;;17.90;77.60;;;;;;5075518;28;20213;-89
2021/10/03 06:41:05;;;;;;;3.67;3.20;;;18.00;77.10;;;;;;5074521;28;20225;-88
2021/10/03 06:43:35;;;;;;;5.90;3.33;;;18.10;76.80;;;;;;5072747;28;20229;-89
2021/10/03 06:46:05;;;;;;;8.25;4.00;;;18.10;77.10;;;;;;5073961;28;20179;-89
2021/10/03 06:48:31;;;;;;;4.95;3.60;;;18.10;76.60;;;;;;5074165;28;20199;-89
2021/10/03 06:50:57;;;;;;;4.93;3.55;;;18.30;75.90;;;;;;5073703;28;20195;-89
2021/10/03 06:53:23;;;;;;;5.15;3.92;;;18.30;76.30;;;;;;5074061;28;20171;-89
2021/10/03 06:55:48;;;;;;;4.30;3.90;;;18.30;76.20;;;;;;5073764;28;20187;-89
2021/10/03 06:58:14;;;;;;;4.65;3.80;;;18.30;76.40;;;;;;5073462;28;20265;-89
2021/10/03 07:00:40;;;;;;;3.40;2.60;;;18.30;76.70;;;;;;5073732;28;20199;-89
2021/10/03 07:03:05;;;;;;;4.28;2.70;;;18.30;76.20;;;;;;5073573;28;20714;-89
2021/10/03 07:05:31;;;;;;;3.53;3.22;;;18.40;76.10;;;;;;5074851;28;20179;-89
2021/10/03 07:07:57;;;;;;;3.40;3.10;;;18.50;75.60;;;;;;5073378;28;20209;-89
2021/10/03 07:10:22;;;;;;;4.45;3.40;;;18.40;76.00;;;;;;5073374;28;20244;-89
2021/10/03 07:12:48;;;;;;;5.00;4.07;;;18.50;76.40;;;;;;5073346;28;20180;-89
2021/10/03 07:15:14;;;;;;;5.63;3.58;;;18.50;76.30;;;;;;5074815;28;20675;-89
2021/10/03 07:17:39;;;;;;;6.38;3.67;;;18.40;76.90;;;;;;5074035;28;20518;-89
2021/10/03 07:20:06;;;;;;;3.95;3.33;;;18.40;77.10;;;;;;5073518;28;20179;-89
2021/10/03 07:22:32;;;;;;;5.30;3.30;;;18.40;77.20;;;;;;5074351;28;20178;-89
2021/10/03 07:24:57;;;;;;;4.00;3.40;;;18.40;77.20;;;;;;5074294;28;20576;-89
2021/10/03 07:27:23;;;;;;;6.78;3.40;;;18.40;77.00;;;;;;5073065;28;20210;-89
2021/10/03 07:29:49;;;;;;;5.20;3.63;;;18.50;76.70;;;;;;5072984;28;20206;-89
2021/10/03 07:32:16;;;;;;;3.50;3.20;;;18.60;76.50;;;;;;5072951;28;20577;-89
2021/10/03 07:34:42;;;;;;;7.95;4.10;;;18.70;75.90;;;;;;5073337;28;20190;-88
2021/10/03 07:37:07;;;;;;;5.90;3.45;;;18.70;76.10;;;;;;5072937;28;20175;-89
2021/10/03 07:39:34;;;;;;;4.47;3.78;;;18.70;76.30;;;;;;5072780;28;20655;-88
2021/10/03 07:42:00;;;;;;;4.53;4.00;;;18.80;75.20;;;;;;5072823;28;20187;-88
2021/10/03 07:44:26;;;;;;;4.13;3.60;;;18.80;75.50;;;;;;5072651;28;20266;-88
2021/10/03 07:46:52;;;;;;;5.03;3.28;;;18.80;75.30;;;;;;5072859;28;20615;-87
2021/10/03 07:49:17;;;;;;;5.70;4.15;;;18.90;74.90;;;;;;5073792;28;20195;-87
2021/10/03 07:51:43;;;;;;;4.35;3.75;;;18.90;75.10;;;;;;5073679;28;20199;-87
2021/10/03 07:54:09;;;;;;;7.20;3.67;;;19.00;74.70;;;;;;5072275;28;20179;-86
2021/10/03 07:56:35;;;;;;;3.70;3.08;;;19.00;74.50;;;;;;5072383;28;20198;-86
2021/10/03 07:59:01;;;;;;;7.05;4.40;;;19.00;74.50;;;;;;5072245;28;20219;-86
2021/10/03 08:01:27;;;;;;;4.55;3.28;;;19.00;75.10;;;;;;5073684;28;20171;-86
2021/10/03 08:03:55;;;;;;;6.53;3.85;;;19.00;75.30;;;;;;5072385;28;20175;-86
2021/10/03 08:06:21;;;;;;;7.03;4.10;;;19.00;75.70;;;;;;5073706;28;20174;-87
2021/10/03 08:08:47;;;;;;;5.50;4.00;;;19.00;75.30;;;;;;5072210;28;20689;-87
2021/10/03 08:11:13;;;;;;;8.00;4.10;;;18.90;75.60;;;;;;5072117;28;20195;-86
2021/10/03 08:13:39;;;;;;;4.47;3.80;;;18.90;75.70;;;;;;5072259;28;20645;-87
2021/10/03 08:16:06;;;;;;;7.22;3.55;;;19.00;76.00;;;;;;5072220;28;20546;-87
2021/10/03 08:18:31;;;;;;;5.25;4.22;;;18.90;75.70;;;;;;5072267;28;20225;-88
2021/10/03 08:20:57;;;;;;;6.43;3.90;;;18.90;76.00;;;;;;5072316;28;20178;-88
2021/10/03 08:23:23;;;;;;;5.57;4.65;;;19.00;75.70;;;;;;5073415;28;20195;-88
2021/10/03 08:25:49;;;;;;;6.65;4.60;;;18.90;76.50;;;;;;5072176;28;20236;-89
2021/10/03 08:28:15;;;;;;;5.35;4.72;;;18.90;76.50;;;;;;5072148;28;20242;-89
2021/10/03 08:30:41;;;;;;;5.03;3.85;;;18.90;76.40;;;;;;5072366;28;20206;-88
2021/10/03 08:33:07;;;;;;;5.05;4.18;;;18.90;76.30;;;;;;5072138;28;20168;-88
2021/10/03 08:35:34;;;;;;;5.38;4.80;;;18.90;76.80;;;;;;5073302;28;20585;-89
2021/10/03 08:38:00;;;;;;;7.38;4.13;;;18.90;76.60;;;;;;5071953;28;20203;-88
2021/10/03 08:40:26;;;;;;;7.07;4.25;;;19.00;75.70;;;;;;5072050;28;20176;-89
2021/10/03 08:42:51;;;;;;;6.35;4.10;;;19.00;75.50;;;;;;5073299;28;20168;-89
2021/10/03 08:45:17;;;;;;;5.47;4.10;;;19.00;75.90;;;;;;5072015;28;20254;-89
2021/10/03 08:47:43;;;;;;;7.93;4.75;;;19.00;76.20;;;;;;5071884;28;20258;-89
2021/10/03 08:50:11;;;;;;;4.53;3.88;;;18.90;76.10;;;;;;5072054;28;20610;-89
2021/10/03 08:52:43;;;;;;;7.30;4.80;;;18.90;76.30;;;;;;5072010;28;20199;-89
2021/10/03 08:55:11;;;;;;;4.60;3.85;;;18.90;75.70;;;;;;5071917;28;20167;-89
2021/10/03 08:57:37;;;;;;;5.10;4.18;;;19.00;75.20;;;;;;5071866;28;20167;-88
2021/10/03 09:00:10;;;;;;;6.13;4.38;;;19.00;75.70;;;;;;5071947;28;20226;-89
2021/10/03 09:03:04;;;;;;;5.40;3.90;;;19.00;75.50;;;;;;5072103;28;20172;-88
2021/10/03 09:05:44;;;;;;;4.47;3.75;;;19.00;75.00;;;;;;5071839;28;20639;-88
2021/10/03 09:08:21;;;;;;;8.07;4.45;;;19.00;75.70;;;;;;5076456;28;20297;-88
2021/10/03 09:10:57;;;;;;;4.80;4.07;;;19.00;75.50;;;;;;5075626;28;20203;-89
2021/10/03 09:13:47;;;;;;;8.73;3.88;;;18.90;76.10;;;;;;5075818;28;20248;-89
2021/10/03 09:16:23;;;;;;;5.53;3.95;;;18.90;76.40;;;;;;5076869;28;20156;-89
2021/10/03 09:18:54;;;;;;;7.45;4.53;;;18.90;76.00;;;;;;5076060;28;20190;-89
2021/10/03 09:21:29;;;;;;;6.55;4.43;;;18.90;76.80;;;;;;5075513;28;20190;-89
2021/10/03 09:24:19;;;;;;;5.28;4.65;;;18.90;76.20;;;;;;5075398;28;20178;-89
2021/10/03 09:26:56;;;;;;;5.13;3.53;;;19.00;76.10;;;;;;5076916;28;20187;-89
2021/10/03 09:29:32;;;;;;;7.63;3.80;;;19.00;75.50;;;;;;5075637;28;20225;-89
2021/10/03 09:32:17;;;;;;;5.60;3.80;;;19.00;75.90;;;;;;5075250;28;20225;-88
2021/10/03 09:34:49;;;;;;;6.78;4.65;;;19.10;75.30;;;;;;5075332;28;20195;-88
2021/10/03 09:37:29;;;;;;;6.78;4.57;;;19.10;75.40;;;;;;5075184;28;20695;-88
2021/10/03 09:40:12;;;;;;;6.18;3.78;;;19.20;74.90;;;;;;5076702;28;20530;-88
2021/10/03 09:42:39;;;;;;;4.20;3.45;;;19.20;74.10;;;;;;5075164;28;20171;-88
2021/10/03 09:45:12;;;;;;;6.75;4.60;;;19.20;73.80;;;;;;5076543;28;20171;-89
2021/10/03 09:47:40;;;;;;;5.97;4.00;;;19.20;73.80;;;;;;5074996;28;20193;-88
2021/10/03 09:50:09;;;;;;;7.43;3.92;;;19.20;74.00;;;;;;5074973;28;20558;-88
2021/10/03 09:52:38;;;;;;;5.68;4.00;;;19.20;73.90;;;;;;5076025;28;20198;-88
2021/10/03 09:55:05;;;;;;;4.32;3.60;;;19.20;75.10;;;;;;5074781;28;20658;-88
2021/10/03 09:57:31;;;;;;;5.30;4.35;;;19.20;74.10;;;;;;5075975;28;20175;-88
2021/10/03 09:59:57;;;;;;;5.88;2.88;;;19.20;74.40;;;;;;5074672;28;20270;-88
2021/10/03 10:02:24;;;;;;;4.63;3.80;;;19.20;73.80;;;;;;5075549;28;20194;-88
2021/10/03 10:04:50;;;;;;;6.25;3.50;;;19.20;74.40;;;;;;5074700;28;20730;-88
2021/10/03 10:07:19;;;;;;;4.82;3.65;;;19.10;74.60;;;;;;5076149;28;20182;-89
2021/10/03 10:09:45;;;;;;;4.60;3.30;;;19.20;73.70;;;;;;5074575;28;20246;-89
2021/10/03 10:12:15;;;;;;;4.28;3.88;;;19.10;74.90;;;;;;5075718;28;20203;-88
2021/10/03 10:14:46;;;;;;;5.57;3.70;;;19.10;75.00;;;;;;5076078;28;20635;-89
2021/10/03 10:17:28;;;;;;;3.33;2.72;;;19.00;74.90;;;;;;5074325;28;20171;-88
2021/10/03 10:19:56;;;;;;;7.43;3.00;;;19.00;74.80;;;;;;5074340;28;20230;-88
2021/10/03 10:22:25;;;;;;;6.38;4.32;;;19.00;74.80;;;;;;5074379;28;20330;-88
2021/10/03 10:24:53;;;;;;;8.20;4.05;;;19.00;75.50;;;;;;5074397;28;20172;-89
2021/10/03 10:27:24;;;;;;;4.93;3.88;;;18.90;76.30;;;;;;5075105;28;20206;-88
2021/10/03 10:29:52;;;;;;;3.53;3.22;;;18.80;76.60;;;;;;5074262;28;20287;-88
2021/10/03 10:32:22;;;;;;;4.95;3.95;;;18.90;76.00;;;;;;5074500;28;20199;-88
2021/10/03 10:35:06;;;;;;;4.95;3.70;;;19.00;76.00;;;;;;5075334;28;20695;-88
2021/10/03 10:37:50;;;;;;;4.85;4.38;;;19.00;75.50;;;;;;5075210;28;20552;-88
2021/10/03 10:40:24;;;;;;;7.20;4.22;;;19.10;75.60;;;;;;5074478;28;20171;-89
2021/10/03 10:42:52;;;;;;;4.25;3.63;;;19.20;75.10;;;;;;5074145;28;20267;-89
2021/10/03 10:45:27;;;;;;;4.43;3.65;;;19.20;75.10;;;;;;5074082;28;20254;-89
2021/10/03 10:48:22;;;;;;;3.42;2.97;;;19.20;73.90;;;;;;5074679;28;20556;-87
2021/10/03 10:50:53;;;;;;;5.03;3.80;;;19.20;74.30;;;;;;5069365;28;20286;-88
2021/10/03 10:53:22;;;;;;;4.18;3.42;;;19.20;74.60;;;;;;5073847;28;20199;-88
2021/10/03 10:56:15;;;;;;;6.32;4.18;;;19.20;74.20;;;;;;5075311;28;20538;-88
2021/10/03 10:58:50;;;;;;;3.75;3.13;;;19.30;74.20;;;;;;5075213;28;20302;-88
2021/10/03 11:01:35;;;;;;;6.05;3.28;;;19.50;73.20;;;;;;5074814;28;20175;-89
2021/10/03 11:04:22;;;;;;;8.73;3.50;;;19.40;73.70;;;;;;5074818;28;20277;-88
2021/10/03 11:06:48;;;;;;;4.30;3.28;;;19.50;72.80;;;;;;5074409;28;20508;-89
2021/10/03 11:09:16;;;;;;;9.13;3.88;;;19.50;73.20;;;;;;5073453;28;20202;-89
2021/10/03 11:11:54;;;;;;;4.32;3.10;;;19.50;72.70;;;;;;5073637;28;20214;-89
2021/10/03 11:14:22;;;;;;;3.88;3.25;;;19.70;71.90;;;;;;5073358;28;20245;-88
2021/10/03 11:16:50;;;;;;;6.78;3.70;;;19.70;70.70;;;;;;5073317;28;20180;-88
2021/10/03 11:19:41;;;;;;;3.85;3.33;;;19.80;71.10;;;;;;5073221;28;20187;-88
2021/10/03 11:22:18;;;;;;;3.85;2.90;;;19.90;70.80;;;;;;5072903;28;20183;-88
2021/10/03 11:24:48;;;;;;;3.47;3.17;;;20.00;70.50;;;;;;5073223;28;20221;-88
2021/10/03 11:27:17;;;;;;;4.53;3.17;;;20.10;69.50;;;;;;5073046;28;20225;-89
2021/10/03 11:29:46;;;;;;;8.55;3.72;;;20.20;70.10;;;;;;5072308;28;20762;-89
2021/10/03 11:32:19;;;;;;;4.70;2.80;;;20.20;70.00;;;;;;5074036;28;20252;-88
2021/10/03 11:34:54;;;;;;;8.50;3.45;;;20.20;69.70;;;;;;5074165;28;20623;-88
2021/10/03 11:37:29;;;;;;;4.63;3.42;;;20.10;70.70;;;;;;5074111;28;20167;-88
2021/10/03 11:40:06;;;;;;;5.50;3.13;;;20.10;69.90;;;;;;5072831;28;20186;-88
2021/10/03 11:42:42;;;;;;;4.03;3.13;;;20.10;69.50;;;;;;5072803;28;20171;-88
2021/10/03 11:45:09;;;;;;;4.38;3.05;;;20.00;69.70;;;;;;5072773;28;20654;-88
2021/10/03 11:47:36;;;;;;;4.85;3.40;;;20.00;69.70;;;;;;5073819;28;20202;-88
2021/10/03 11:50:03;;;;;;;3.78;3.28;;;20.10;69.80;;;;;;5072625;28;20179;-88
2021/10/03 11:52:36;;;;;;;3.92;2.30;;;20.20;69.20;;;;;;5073681;28;20261;-88
2021/10/03 11:55:07;;;;;;;3.70;3.10;;;20.20;68.80;;;;;;5072666;28;20535;-88
2021/10/03 11:57:40;;;;;;;5.63;2.97;;;20.30;68.90;;;;;;5072785;28;20175;-88
2021/10/03 12:00:13;;;;;;;5.75;2.47;;;20.40;68.00;;;;;;5072519;28;20274;-88
2021/10/03 12:02:45;;;;;;;3.10;2.78;;;20.50;66.80;;;;;;5073696;28;20167;-88
2021/10/03 12:05:15;;;;;;;4.57;2.35;;;20.50;67.30;;;;;;5072522;28;20175;-88
2021/10/03 12:07:41;;;;;;;3.83;3.30;;;20.60;66.60;;;;;;5073613;28;20170;-88
2021/10/03 12:10:13;;;;;;;5.22;3.40;;;20.60;68.00;;;;;;5073663;28;20634;-88
2021/10/03 12:12:55;;;;;;;5.15;2.85;;;20.70;68.40;;;;;;5072362;28;20569;-88
2021/10/03 12:15:44;;;;;;;4.45;2.88;;;20.70;67.90;;;;;;5072393;28;20168;-88
2021/10/03 12:18:30;;;;;;;3.42;3.10;;;20.70;68.40;;;;;;5072214;28;20198;-88
2021/10/03 12:21:12;;;;;;;4.03;3.03;;;20.70;68.60;;;;;;5072317;28;20199;-88
2021/10/03 12:23:52;;;;;;;8.90;3.33;;;20.60;68.50;;;;;;5072144;28;20266;-88
2021/10/03 12:26:42;;;;;;;6.65;3.30;;;20.50;68.50;;;;;;5072098;28;20202;-88
2021/10/03 12:29:24;;;;;;;3.25;2.95;;;20.30;68.50;;;;;;5072042;28;20199;-88
2021/10/03 12:32:10;;;;;;;3.97;3.17;;;20.30;69.10;;;;;;5072100;28;20195;-88
2021/10/03 12:34:43;;;;;;;6.88;3.28;;;20.30;67.70;;;;;;5072092;28;20171;-88
2021/10/03 12:37:14;;;;;;;5.65;3.53;;;20.30;68.30;;;;;;5073354;28;20148;-88
2021/10/03 12:39:42;;;;;;;3.53;2.92;;;20.50;67.30;;;;;;5073073;28;20191;-88
2021/10/03 12:42:15;;;;;;;5.97;2.72;;;20.50;68.10;;;;;;5071187;28;20182;-87
2021/10/03 12:44:43;;;;;;;4.45;3.33;;;20.50;67.70;;;;;;5071991;28;20175;-88
2021/10/03 12:47:10;;;;;;;3.38;3.00;;;20.40;67.40;;;;;;5071909;28;20175;-88
2021/10/03 12:49:36;;;;;;;3.97;2.75;;;20.40;67.20;;;;;;5073050;28;20194;-88
2021/10/03 12:52:07;;;;;;;4.15;3.10;;;20.40;67.50;;;;;;5072688;28;20554;-88